createdAt,value
2022-12-01T00:01:07.511Z,3.30
2022-12-01T00:03:34.768Z,3.40
2022-12-01T00:06:07.345Z,3.40
2022-12-01T00:08:34.311Z,3.40
2022-12-01T00:11:10.328Z,3.40
2022-12-01T00:13:37.219Z,3.30
2022-12-01T00:16:15.019Z,3.30
2022-12-01T00:18:42.138Z,3.30
2022-12-01T00:21:16.201Z,3.20
2022-12-01T00:23:47.635Z,3.20
2022-12-01T00:26:15.611Z,3.20
2022-12-01T00:28:42.483Z,3.10
2022-12-01T00:31:10.331Z,3.10
2022-12-01T00:33:37.285Z,3.10
2022-12-01T00:36:04.495Z,3.10
2022-12-01T00:38:32.185Z,3.00
2022-12-01T00:40:58.970Z,3.00
2022-12-01T00:43:27.670Z,2.90
2022-12-01T00:45:56.375Z,2.90
2022-12-01T00:48:23.384Z,2.90
2022-12-01T00:50:54.234Z,2.90
2022-12-01T00:53:21.495Z,3.00
2022-12-01T00:55:48.289Z,2.90
2022-12-01T00:58:15.130Z,2.90
2022-12-01T01:00:43.058Z,2.90
2022-12-01T01:03:10.693Z,2.90
2022-12-01T01:05:38.317Z,3.00
2022-12-01T01:08:10.534Z,3.00
2022-12-01T01:10:46.145Z,3.00
2022-12-01T01:13:14.173Z,3.00
2022-12-01T01:15:41.039Z,3.10
2022-12-01T01:18:09.637Z,3.10
2022-12-01T01:20:36.479Z,3.10
2022-12-01T01:23:03.762Z,3.10
2022-12-01T01:25:32.621Z,3.20
2022-12-01T01:27:59.510Z,3.20
2022-12-01T01:30:26.298Z,3.20
2022-12-01T01:32:53.080Z,3.20
2022-12-01T01:35:19.970Z,3.30
2022-12-01T01:37:46.822Z,3.30
2022-12-01T01:40:13.553Z,3.30
2022-12-01T01:42:40.299Z,3.30
2022-12-01T01:45:27.728Z,3.30
2022-12-01T01:47:56.027Z,3.30
2022-12-01T01:50:25.244Z,3.40
2022-12-01T01:52:56.140Z,3.40
2022-12-01T01:55:22.925Z,3.40
2022-12-01T01:57:50.062Z,3.50
2022-12-01T02:00:19.159Z,3.50
2022-12-01T02:02:47.373Z,3.40
2022-12-01T02:05:24.357Z,3.50
2022-12-01T02:07:52.459Z,3.50
2022-12-01T02:10:22.662Z,3.50
2022-12-01T02:12:58.599Z,3.50
2022-12-01T02:15:25.515Z,3.40
2022-12-01T02:17:55.114Z,3.40
2022-12-01T02:20:46.776Z,3.40
2022-12-01T02:23:25.833Z,3.40
2022-12-01T02:26:10.921Z,3.40
2022-12-01T02:28:56.497Z,3.30
2022-12-01T02:31:43.504Z,3.30
2022-12-01T02:34:16.959Z,3.30
2022-12-01T02:36:52.191Z,3.30
2022-12-01T02:40:03.560Z,3.30
2022-12-01T02:42:53.641Z,3.40
2022-12-01T02:45:36.087Z,3.40
2022-12-01T02:48:05.484Z,3.40
2022-12-01T02:50:34.197Z,3.40
2022-12-01T02:53:03.818Z,3.40
2022-12-01T02:55:30.668Z,3.40
2022-12-01T02:57:57.433Z,3.40
2022-12-01T03:00:24.370Z,3.50
2022-12-01T03:02:54.157Z,3.50
2022-12-01T03:05:27.017Z,3.50
2022-12-01T03:08:15.873Z,3.50
2022-12-01T03:10:57.812Z,3.50
2022-12-01T03:13:33.446Z,3.50
2022-12-01T03:16:16.791Z,3.60
2022-12-01T03:18:46.361Z,3.50
2022-12-01T03:21:21.350Z,3.60
2022-12-01T03:23:53.590Z,3.60
2022-12-01T03:26:21.976Z,3.50
2022-12-01T03:28:55.577Z,3.50
2022-12-01T03:31:33.532Z,3.50
2022-12-01T03:34:38.763Z,3.60
2022-12-01T03:37:11.146Z,3.60
2022-12-01T03:39:39.024Z,3.60
2022-12-01T03:42:13.782Z,3.60
2022-12-01T03:44:47.706Z,3.60
2022-12-01T03:47:21.146Z,3.60
2022-12-01T03:49:50.677Z,3.60
2022-12-01T03:52:48.521Z,3.60
2022-12-01T03:55:23.635Z,3.60
2022-12-01T03:57:56.120Z,3.50
2022-12-01T04:00:23.519Z,3.50
2022-12-01T04:02:58.012Z,3.50
2022-12-01T04:05:25.770Z,3.40
2022-12-01T04:07:53.165Z,3.40
2022-12-01T04:10:20.197Z,3.40
2022-12-01T04:12:47.029Z,3.40
2022-12-01T04:15:14.605Z,3.40
2022-12-01T04:17:43.524Z,3.40
2022-12-01T04:20:12.759Z,3.40
2022-12-01T04:22:39.580Z,3.30
2022-12-01T04:25:07.525Z,3.30
2022-12-01T04:27:34.422Z,3.30
2022-12-01T04:30:01.172Z,3.30
2022-12-01T04:32:27.992Z,3.30
2022-12-01T04:34:54.733Z,3.30
2022-12-01T04:37:21.555Z,3.20
2022-12-01T04:39:48.527Z,3.30
2022-12-01T04:42:15.448Z,3.20
2022-12-01T04:44:42.135Z,3.20
2022-12-01T04:47:08.911Z,3.20
2022-12-01T04:49:37.235Z,3.10
2022-12-01T04:52:04.381Z,3.10
2022-12-01T04:54:31.150Z,3.10
2022-12-01T04:56:57.883Z,3.10
2022-12-01T04:59:24.655Z,3.00
2022-12-01T05:01:51.481Z,3.00
2022-12-01T05:04:18.333Z,3.00
2022-12-01T05:06:45.342Z,3.00
2022-12-01T05:09:17.755Z,3.00
2022-12-01T05:11:44.980Z,2.90
2022-12-01T05:14:11.769Z,2.90
2022-12-01T05:16:39.164Z,2.90
2022-12-01T05:19:25.184Z,2.90
2022-12-01T05:21:52.219Z,2.90
2022-12-01T05:24:19.899Z,2.80
2022-12-01T05:26:46.860Z,2.80
2022-12-01T05:29:14.080Z,2.80
2022-12-01T05:31:41.441Z,2.80
2022-12-01T05:34:08.769Z,2.70
2022-12-01T05:36:36.462Z,2.70
2022-12-01T05:39:04.449Z,2.70
2022-12-01T05:41:31.337Z,2.70
2022-12-01T05:43:58.284Z,2.70
2022-12-01T05:46:25.192Z,2.70
2022-12-01T05:48:52.112Z,2.60
2022-12-01T05:51:18.850Z,2.60
2022-12-01T05:53:45.687Z,2.60
2022-12-01T05:56:12.528Z,2.60
2022-12-01T05:58:39.346Z,2.60
2022-12-01T06:01:06.203Z,2.60
2022-12-01T06:03:33.060Z,2.60
2022-12-01T06:05:59.839Z,2.60
2022-12-01T06:08:26.765Z,2.60
2022-12-01T06:10:53.540Z,2.60
2022-12-01T06:13:20.366Z,2.70
2022-12-01T06:15:56.238Z,2.70
2022-12-01T06:18:23.798Z,2.70
2022-12-01T06:20:50.567Z,2.70
2022-12-01T06:23:17.308Z,2.70
2022-12-01T06:25:44.064Z,2.70
2022-12-01T06:28:10.981Z,2.80
2022-12-01T06:30:37.762Z,2.70
2022-12-01T06:33:04.528Z,2.70
2022-12-01T06:35:31.304Z,2.70
2022-12-01T06:37:58.240Z,2.70
2022-12-01T06:40:24.996Z,2.70
2022-12-01T06:42:51.741Z,2.70
2022-12-01T06:45:18.759Z,2.70
2022-12-01T06:47:48.140Z,2.80
2022-12-01T06:50:15.003Z,2.80
2022-12-01T06:52:41.788Z,2.90
2022-12-01T06:55:08.935Z,2.90
2022-12-01T06:57:35.859Z,2.90
2022-12-01T07:00:04.772Z,2.90
2022-12-01T07:02:32.082Z,2.90
2022-12-01T07:04:58.825Z,2.90
2022-12-01T07:07:25.675Z,3.00
2022-12-01T07:09:52.471Z,3.10
2022-12-01T07:12:19.214Z,3.10
2022-12-01T07:14:46.069Z,3.10
2022-12-01T07:17:12.916Z,3.20
2022-12-01T07:19:39.691Z,3.10
2022-12-01T07:22:06.497Z,3.20
2022-12-01T07:24:33.311Z,3.20
2022-12-01T07:27:00.235Z,3.20
2022-12-01T07:29:27.026Z,3.30
2022-12-01T07:31:53.807Z,3.30
2022-12-01T07:34:20.559Z,3.30
2022-12-01T07:36:47.370Z,3.40
2022-12-01T07:39:14.108Z,3.30
2022-12-01T07:41:40.908Z,3.40
2022-12-01T07:44:10.175Z,3.30
2022-12-01T07:46:37.298Z,3.40
2022-12-01T07:49:08.344Z,3.40
2022-12-01T07:51:35.207Z,3.40
2022-12-01T07:54:03.925Z,3.50
2022-12-01T07:56:30.923Z,3.50
2022-12-01T07:58:57.690Z,3.50
2022-12-01T08:01:25.488Z,3.60
2022-12-01T08:03:54.300Z,3.60
2022-12-01T08:06:22.116Z,3.60
2022-12-01T08:08:49.451Z,3.60
2022-12-01T08:11:17.689Z,3.70
2022-12-01T08:13:44.678Z,3.60
2022-12-01T08:16:13.986Z,3.70
2022-12-01T08:18:42.530Z,3.70
2022-12-01T08:21:14.666Z,3.70
2022-12-01T08:23:42.267Z,3.80
2022-12-01T08:26:14.508Z,3.80
2022-12-01T08:28:41.647Z,3.80
2022-12-01T08:31:08.494Z,3.80
2022-12-01T08:33:35.439Z,3.90
2022-12-01T08:36:03.509Z,3.90
2022-12-01T08:38:30.366Z,3.80
2022-12-01T08:41:05.189Z,3.90
2022-12-01T08:43:56.712Z,3.90
2022-12-01T08:46:19.093Z,3.90
2022-12-01T08:48:46.102Z,4.00
2022-12-01T08:51:17.639Z,3.90
2022-12-01T08:53:46.864Z,3.90
2022-12-01T08:56:17.366Z,3.90
2022-12-01T08:58:44.500Z,3.90
2022-12-01T09:01:13.779Z,3.90
2022-12-01T09:03:41.132Z,3.90
2022-12-01T09:06:14.171Z,3.90
2022-12-01T09:08:41.272Z,3.90
2022-12-01T09:11:12.279Z,3.90
2022-12-01T09:13:39.927Z,3.90
2022-12-01T09:16:10.369Z,3.90
2022-12-01T09:18:37.359Z,3.90
2022-12-01T09:21:25.469Z,3.90
2022-12-01T09:23:52.483Z,3.90
2022-12-01T09:26:19.659Z,3.90
2022-12-01T09:28:48.116Z,3.90
2022-12-01T09:31:16.386Z,4.00
2022-12-01T09:33:43.218Z,3.90
2022-12-01T09:36:10.468Z,4.00
2022-12-01T09:38:38.521Z,4.10
2022-12-01T09:41:25.591Z,4.10
2022-12-01T09:43:56.423Z,4.10
2022-12-01T09:46:33.428Z,4.20
2022-12-01T09:49:01.784Z,4.20
2022-12-01T09:51:28.953Z,4.30
2022-12-01T09:53:57.731Z,4.30
2022-12-01T09:56:27.772Z,4.40
2022-12-01T09:59:10.006Z,4.40
2022-12-01T10:01:39.699Z,4.40
2022-12-01T10:04:36.506Z,4.40
2022-12-01T10:07:09.151Z,4.40
2022-12-01T10:09:42.908Z,4.40
2022-12-01T10:12:20.527Z,4.40
2022-12-01T10:14:48.873Z,4.30
2022-12-01T10:17:31.235Z,4.30
2022-12-01T10:20:11.037Z,4.30
2022-12-01T10:23:07.191Z,4.40
2022-12-01T10:25:50.751Z,4.40
2022-12-01T10:28:43.018Z,4.40
2022-12-01T10:31:19.125Z,4.50
2022-12-01T10:34:01.976Z,4.50
2022-12-01T10:36:30.864Z,4.60
2022-12-01T10:38:57.720Z,4.60
2022-12-01T10:41:26.263Z,4.60
2022-12-01T10:43:59.520Z,4.70
2022-12-01T10:46:50.589Z,4.70
2022-12-01T10:49:18.994Z,4.80
2022-12-01T10:51:57.361Z,4.80
2022-12-01T10:54:33.264Z,4.80
2022-12-01T10:57:00.488Z,4.90
2022-12-01T10:59:43.623Z,4.90
2022-12-01T11:02:21.826Z,4.90
2022-12-01T11:04:52.782Z,4.90
2022-12-01T11:07:43.500Z,4.90
2022-12-01T11:10:16.428Z,4.90
2022-12-01T11:12:46.207Z,5.00
2022-12-01T11:15:22.110Z,5.00
2022-12-01T11:17:49.060Z,5.00
2022-12-01T11:20:33.529Z,5.00
2022-12-01T11:23:12.565Z,5.00
2022-12-01T11:25:39.499Z,5.10
2022-12-01T11:28:06.422Z,5.10
2022-12-01T11:30:33.684Z,5.10
2022-12-01T11:33:02.972Z,5.20
2022-12-01T11:35:37.693Z,5.20
2022-12-01T11:38:28.697Z,5.20
2022-12-01T11:40:57.734Z,5.20
2022-12-01T11:43:33.230Z,5.10
2022-12-01T11:46:03.732Z,5.20
2022-12-01T11:48:32.017Z,5.20
2022-12-01T11:51:17.579Z,5.30
2022-12-01T11:53:44.485Z,5.30
2022-12-01T11:56:28.769Z,5.40
2022-12-01T11:59:08.967Z,5.40
2022-12-01T12:01:53.549Z,5.50
2022-12-01T12:04:38.597Z,5.60
2022-12-01T12:07:05.306Z,5.60
2022-12-01T12:09:45.846Z,5.70
2022-12-01T12:12:30.406Z,5.70
2022-12-01T12:14:57.095Z,5.80
2022-12-01T12:17:54.488Z,5.90
2022-12-01T12:20:39.404Z,6.00
2022-12-01T12:23:19.766Z,6.10
2022-12-01T12:25:53.296Z,6.20
2022-12-01T12:28:23.159Z,6.20
2022-12-01T12:31:15.473Z,6.20
2022-12-01T12:34:00.665Z,6.20
2022-12-01T12:36:56.514Z,6.20
2022-12-01T12:39:41.482Z,6.20
2022-12-01T12:42:17.923Z,6.30
2022-12-01T12:44:47.838Z,6.40
2022-12-01T12:47:33.234Z,6.50
2022-12-01T12:50:05.986Z,6.60
2022-12-01T12:52:36.711Z,6.70
2022-12-01T12:55:11.065Z,6.80
2022-12-01T12:57:49.420Z,7.00
2022-12-01T13:00:19.543Z,7.10
2022-12-01T13:02:55.216Z,7.20
2022-12-01T13:05:30.131Z,7.30
2022-12-01T13:08:07.666Z,7.30
2022-12-01T13:10:39.873Z,7.40
2022-12-01T13:13:12.657Z,7.60
2022-12-01T13:15:40.972Z,7.70
2022-12-01T13:18:19.851Z,7.80
2022-12-01T13:20:47.177Z,7.90
2022-12-01T13:23:17.137Z,8.10
2022-12-01T13:25:44.733Z,8.10
2022-12-01T13:28:22.143Z,8.30
2022-12-01T13:31:09.362Z,8.50
2022-12-01T13:33:37.626Z,8.50
2022-12-01T13:39:15.337Z,8.60
2022-12-01T13:41:43.463Z,8.80
2022-12-01T13:44:39.740Z,8.90
2022-12-01T13:47:12.601Z,9.10
2022-12-01T13:49:47.920Z,9.20
2022-12-01T13:52:28.181Z,9.10
2022-12-01T13:55:04.246Z,9.00
2022-12-01T13:57:32.943Z,8.90
2022-12-01T13:59:59.824Z,8.80
2022-12-01T14:02:31.589Z,8.80
2022-12-01T14:05:23.433Z,8.80
2022-12-01T14:07:51.677Z,8.80
2022-12-01T14:10:28.207Z,8.70
2022-12-01T14:12:58.172Z,8.80
2022-12-01T14:15:30.558Z,8.80
2022-12-01T14:18:04.462Z,8.80
2022-12-01T14:20:34.270Z,8.80
2022-12-01T14:23:13.271Z,8.80
2022-12-01T14:25:41.119Z,8.80
2022-12-01T14:28:19.506Z,8.80
2022-12-01T14:30:46.270Z,8.80
2022-12-01T14:33:39.274Z,8.80
2022-12-01T14:36:24.900Z,8.90
2022-12-01T14:39:18.640Z,8.90
2022-12-01T14:41:48.919Z,8.90
2022-12-01T14:44:33.635Z,8.80
2022-12-01T14:47:00.526Z,8.80
2022-12-01T14:49:32.722Z,8.80
2022-12-01T14:52:05.110Z,8.80
2022-12-01T14:54:38.507Z,8.80
2022-12-01T14:57:09.955Z,8.70
2022-12-01T14:59:39.239Z,8.70
2022-12-01T15:02:12.398Z,8.80
2022-12-01T15:05:08.918Z,8.70
2022-12-01T15:07:50.463Z,8.60
2022-12-01T15:10:21.628Z,8.70
2022-12-01T15:12:49.216Z,8.70
2022-12-01T15:15:24.832Z,8.70
2022-12-01T15:17:53.201Z,8.50
2022-12-01T15:20:37.186Z,8.50
2022-12-01T15:23:15.322Z,8.50
2022-12-01T15:25:44.470Z,8.50
2022-12-01T15:28:20.487Z,8.40
2022-12-01T15:30:50.611Z,8.30
2022-12-01T15:33:27.279Z,8.20
2022-12-01T15:35:56.115Z,8.20
2022-12-01T15:38:26.112Z,8.30
2022-12-01T15:41:27.850Z,8.20
2022-12-01T15:43:41.286Z,8.10
2022-12-01T15:46:15.432Z,8.10
2022-12-01T15:48:43.025Z,8.10
2022-12-01T15:51:16.511Z,8.10
2022-12-01T15:53:50.336Z,7.90
2022-12-01T15:56:30.592Z,7.90
2022-12-01T15:59:18.743Z,7.80
2022-12-01T16:01:45.678Z,7.80
2022-12-01T16:04:26.725Z,7.70
2022-12-01T16:06:58.449Z,7.60
2022-12-01T16:09:36.788Z,7.70
2022-12-01T16:12:09.572Z,7.60
2022-12-01T16:14:36.968Z,7.60
2022-12-01T16:17:04.598Z,7.50
2022-12-01T16:19:33.529Z,7.40
2022-12-01T16:22:00.362Z,7.40
2022-12-01T16:24:30.683Z,7.40
2022-12-01T16:27:03.835Z,7.40
2022-12-01T16:29:45.449Z,7.30
2022-12-01T16:32:20.673Z,7.20
2022-12-01T16:34:49.886Z,7.10
2022-12-01T16:37:16.946Z,7.00
2022-12-01T16:39:43.907Z,7.00
2022-12-01T16:42:15.531Z,7.00
2022-12-01T16:44:43.641Z,7.00
2022-12-01T16:47:14.191Z,7.00
2022-12-01T16:49:41.293Z,6.90
2022-12-01T16:52:42.549Z,6.80
2022-12-01T16:54:55.151Z,6.80
2022-12-01T16:57:21.942Z,6.70
2022-12-01T16:59:48.757Z,6.70
2022-12-01T17:02:15.629Z,6.60
2022-12-01T17:04:42.437Z,6.60
2022-12-01T17:07:09.232Z,6.60
2022-12-01T17:09:36.083Z,6.50
2022-12-01T17:12:02.976Z,6.50
2022-12-01T17:14:29.754Z,6.50
2022-12-01T17:16:58.358Z,6.50
2022-12-01T17:19:25.209Z,6.40
2022-12-01T17:21:52.933Z,6.30
2022-12-01T17:24:19.871Z,6.20
2022-12-01T17:26:46.663Z,6.10
2022-12-01T17:29:13.452Z,6.10
2022-12-01T17:31:40.231Z,6.00
2022-12-01T17:34:07.052Z,6.00
2022-12-01T17:36:33.848Z,5.90
2022-12-01T17:39:00.616Z,6.00
2022-12-01T17:41:32.500Z,6.00
2022-12-01T17:44:03.295Z,5.80
2022-12-01T17:46:30.316Z,5.80
2022-12-01T17:48:57.377Z,5.80
2022-12-01T17:51:24.142Z,5.80
2022-12-01T17:53:50.961Z,5.70
2022-12-01T17:56:17.836Z,5.70
2022-12-01T17:58:44.621Z,5.50
2022-12-01T18:01:17.115Z,5.60
2022-12-01T18:03:43.986Z,5.60
2022-12-01T18:06:11.601Z,5.50
2022-12-01T18:08:39.699Z,5.50
2022-12-01T18:11:10.103Z,5.40
2022-12-01T18:13:41.924Z,5.30
2022-12-01T18:16:20.706Z,5.40
2022-12-01T18:18:47.995Z,5.30
2022-12-01T18:21:16.829Z,5.30
2022-12-01T18:23:55.642Z,5.10
2022-12-01T18:26:23.372Z,5.00
2022-12-01T18:29:01.932Z,4.90
2022-12-01T18:31:30.404Z,4.90
2022-12-01T18:33:58.632Z,4.80
2022-12-01T18:36:26.462Z,4.80
2022-12-01T18:38:54.565Z,4.70
2022-12-01T18:41:21.430Z,4.70
2022-12-01T18:43:48.288Z,4.70
2022-12-01T18:46:16.241Z,4.70
2022-12-01T18:48:54.415Z,4.70
2022-12-01T18:51:21.379Z,4.70
2022-12-01T18:53:48.201Z,4.60
2022-12-01T18:56:15.638Z,4.60
2022-12-01T18:58:42.993Z,4.60
2022-12-01T19:01:24.984Z,4.50
2022-12-01T19:03:51.968Z,4.50
2022-12-01T19:06:19.004Z,4.40
2022-12-01T19:08:46.043Z,4.40
2022-12-01T19:11:13.131Z,4.40
2022-12-01T19:13:39.964Z,4.30
2022-12-01T19:16:17.844Z,4.30
2022-12-01T19:18:45.290Z,4.30
2022-12-01T19:21:14.273Z,4.20
2022-12-01T19:23:41.804Z,4.20
2022-12-01T19:26:11.644Z,4.10
2022-12-01T19:28:38.748Z,4.10
2022-12-01T19:31:07.597Z,4.10
2022-12-01T19:33:34.505Z,4.00
2022-12-01T19:36:10.346Z,4.00
2022-12-01T19:38:37.535Z,4.00
2022-12-01T19:41:04.648Z,3.90
2022-12-01T19:43:34.442Z,3.90
2022-12-01T19:46:13.006Z,3.90
2022-12-01T19:48:39.908Z,3.80
2022-12-01T19:51:07.178Z,3.70
2022-12-01T19:53:34.345Z,3.60
2022-12-01T19:56:05.183Z,3.40
2022-12-01T19:58:33.298Z,3.40
2022-12-01T20:01:14.158Z,3.50
2022-12-01T20:03:41.436Z,3.40
2022-12-01T20:06:11.425Z,3.30
2022-12-01T20:08:38.745Z,3.40
2022-12-01T20:11:06.697Z,3.40
2022-12-01T20:13:35.140Z,3.40
2022-12-01T20:16:10.284Z,3.30
2022-12-01T20:18:37.762Z,3.30
2022-12-01T20:21:19.496Z,3.30
2022-12-01T20:23:49.138Z,3.30
2022-12-01T20:26:17.440Z,3.20
2022-12-01T20:28:46.921Z,3.20
2022-12-01T20:31:17.940Z,3.20
2022-12-01T20:33:45.079Z,3.20
2022-12-01T20:36:12.034Z,3.10
2022-12-01T20:38:38.858Z,3.10
2022-12-01T20:41:06.543Z,3.00
2022-12-01T20:43:34.585Z,3.00
2022-12-01T20:46:02.061Z,3.00
2022-12-01T20:48:29.505Z,3.00
2022-12-01T20:50:56.404Z,2.90
2022-12-01T20:53:23.231Z,2.90
2022-12-01T20:55:50.055Z,2.90
2022-12-01T20:58:16.861Z,2.80
2022-12-01T21:00:46.837Z,2.80
2022-12-01T21:03:14.441Z,2.80
2022-12-01T21:05:43.148Z,2.80
2022-12-01T21:08:12.378Z,2.80
2022-12-01T21:10:40.791Z,2.70
2022-12-01T21:13:41.568Z,2.70
2022-12-01T21:16:26.631Z,2.50
2022-12-01T21:18:56.151Z,2.50
2022-12-01T21:21:28.490Z,2.50
2022-12-01T21:24:22.419Z,2.40
2022-12-01T21:27:01.878Z,2.40
2022-12-01T21:29:39.119Z,2.40
2022-12-01T21:32:17.733Z,2.40
2022-12-01T21:34:45.905Z,2.40
2022-12-01T21:37:23.699Z,2.30
2022-12-01T21:39:52.474Z,2.30
2022-12-01T21:42:22.094Z,2.30
2022-12-01T21:44:49.458Z,2.20
2022-12-01T21:47:26.046Z,2.10
2022-12-01T21:49:56.612Z,2.10
2022-12-01T21:52:29.956Z,2.00
2022-12-01T21:55:02.715Z,1.90
2022-12-01T21:57:45.429Z,2.00
2022-12-01T22:00:28.611Z,2.00
2022-12-01T22:03:02.798Z,2.00
2022-12-01T22:05:37.611Z,2.00
2022-12-01T22:08:13.661Z,2.00
2022-12-01T22:11:10.848Z,2.00
2022-12-01T22:13:43.448Z,2.00
2022-12-01T22:16:20.500Z,1.90
2022-12-01T22:18:54.115Z,1.90
2022-12-01T22:21:23.918Z,1.90
2022-12-01T22:23:59.788Z,1.90
2022-12-01T22:26:26.857Z,1.90
2022-12-01T22:28:56.714Z,1.80
2022-12-01T22:31:23.987Z,1.80
2022-12-01T22:34:00.048Z,1.80
2022-12-01T22:36:31.380Z,1.80
2022-12-01T22:38:58.296Z,1.80
2022-12-01T22:41:25.057Z,1.80
2022-12-01T22:43:59.641Z,1.70
2022-12-01T22:46:32.009Z,1.70
2022-12-01T22:49:01.962Z,1.70
2022-12-01T22:51:48.932Z,1.60
2022-12-01T22:54:15.681Z,1.60
2022-12-01T22:56:56.908Z,1.60
2022-12-01T22:59:28.761Z,1.60
2022-12-01T23:01:57.774Z,1.50
2022-12-01T23:04:41.674Z,1.50
2022-12-01T23:07:27.637Z,1.50
2022-12-01T23:09:57.817Z,1.50
2022-12-01T23:12:28.860Z,1.50
2022-12-01T23:15:06.707Z,1.50
2022-12-01T23:17:35.675Z,1.50
2022-12-01T23:20:26.232Z,1.50
2022-12-01T23:22:55.268Z,1.50
2022-12-01T23:25:23.405Z,1.50
2022-12-01T23:27:52.121Z,1.50
2022-12-01T23:30:20.440Z,1.50
2022-12-01T23:32:56.329Z,1.50
2022-12-01T23:35:23.095Z,1.40
2022-12-01T23:37:49.867Z,1.40
2022-12-01T23:40:26.774Z,1.40
2022-12-01T23:42:53.549Z,1.40
2022-12-01T23:45:23.520Z,1.30
2022-12-01T23:47:51.753Z,1.30
2022-12-01T23:50:27.605Z,1.20
2022-12-01T23:52:54.489Z,1.20
2022-12-01T23:55:28.806Z,1.30
2022-12-01T23:57:56.179Z,1.30
